sensor_id;sensor_type;location;lat;lon;timestamp;P1;durP1;ratioP1;P2;durP2;ratioP2
76540;SDS011;65385;55.772;37.658;2022-11-20T11:35:38;9.35;;;4.85;;
76540;SDS011;65385;55.772;37.658;2022-11-20T11:36:55;10.73;;;5.10;;
76540;SDS011;65385;55.772;37.658;2022-11-20T11:38:10;7.32;;;4.20;;
76540;SDS011;65385;55.772;37.658;2022-11-20T11:39:14;9.00;;;4.30;;
76540;SDS011;65385;55.772;37.658;2022-11-20T11:40:18;8.50;;;4.88;;
76540;SDS011;65385;55.772;37.658;2022-11-20T11:41:23;8.10;;;4.80;;
76540;SDS011;65385;55.772;37.658;2022-11-20T11:42:28;8.57;;;4.75;;
76540;SDS011;65385;55.772;37.658;2022-11-20T11:43:31;10.38;;;5.60;;
76540;SDS011;65385;55.772;37.658;2022-11-20T11:44:52;13.10;;;5.18;;
76540;SDS011;65385;55.772;37.658;2022-11-20T11:54:53;15.20;;;7.63;;
76540;SDS011;65385;55.772;37.658;2022-11-20T11:56:04;13.23;;;7.55;;
76540;SDS011;65385;55.772;37.658;2022-11-20T11:57:11;18.17;;;8.27;;
76540;SDS011;65385;55.772;37.658;2022-11-20T11:59:26;14.75;;;7.32;;
76540;SDS011;65385;55.772;37.658;2022-11-20T12:03:24;16.08;;;7.70;;
76540;SDS011;65385;55.772;37.658;2022-11-20T12:11:55;11.25;;;5.18;;
76540;SDS011;65385;55.772;37.658;2022-11-20T12:14:37;22.50;;;7.45;;
76540;SDS011;65385;55.772;37.658;2022-11-20T12:15:40;15.93;;;7.18;;
76540;SDS011;65385;55.772;37.658;2022-11-20T12:16:46;15.73;;;7.28;;
76540;SDS011;65385;55.772;37.658;2022-11-20T12:17:46;14.85;;;7.38;;
76540;SDS011;65385;55.772;37.658;2022-11-20T12:18:49;16.38;;;8.20;;
76540;SDS011;65385;55.772;37.658;2022-11-20T12:19:51;13.77;;;6.00;;
76540;SDS011;65385;55.772;37.658;2022-11-20T12:21:03;18.75;;;8.25;;
76540;SDS011;65385;55.772;37.658;2022-11-20T12:22:30;18.83;;;6.35;;
76540;SDS011;65385;55.772;37.658;2022-11-20T12:23:56;13.90;;;6.13;;
76540;SDS011;65385;55.772;37.658;2022-11-20T12:26:48;17.17;;;7.07;;
76540;SDS011;65385;55.772;37.658;2022-11-20T12:30:28;15.30;;;7.30;;
76540;SDS011;65385;55.772;37.658;2022-11-20T12:32:55;15.65;;;6.90;;
76540;SDS011;65385;55.772;37.658;2022-11-20T12:35:30;18.25;;;8.57;;
76540;SDS011;65385;55.772;37.658;2022-11-20T12:39:33;12.30;;;4.88;;
76540;SDS011;65385;55.772;37.658;2022-11-20T12:40:59;15.43;;;7.55;;
76540;SDS011;65385;55.772;37.658;2022-11-20T12:43:46;15.05;;;5.97;;
76540;SDS011;65385;55.772;37.658;2022-11-20T12:46:47;13.77;;;5.88;;
76540;SDS011;65385;55.772;37.658;2022-11-20T12:50:24;15.30;;;6.80;;
76540;SDS011;65385;55.772;37.658;2022-11-20T12:51:41;15.55;;;6.78;;
76540;SDS011;65385;55.772;37.658;2022-11-20T12:54:03;20.05;;;7.30;;
76540;SDS011;65385;55.772;37.658;2022-11-20T13:00:34;12.93;;;5.85;;
76540;SDS011;65385;55.772;37.658;2022-11-20T13:07:18;16.77;;;6.45;;
76540;SDS011;65385;55.772;37.658;2022-11-20T13:08:24;13.07;;;6.90;;
76540;SDS011;65385;55.772;37.658;2022-11-20T13:09:48;13.98;;;5.97;;
76540;SDS011;65385;55.772;37.658;2022-11-20T13:10:52;14.35;;;7.03;;
76540;SDS011;65385;55.772;37.658;2022-11-20T13:12:02;14.93;;;6.72;;
76540;SDS011;65385;55.772;37.658;2022-11-20T13:13:21;12.57;;;7.22;;
76540;SDS011;65385;55.772;37.658;2022-11-20T13:16:53;22.13;;;8.60;;
76540;SDS011;65385;55.772;37.658;2022-11-20T13:18:00;13.68;;;7.50;;
76540;SDS011;65385;55.772;37.658;2022-11-20T13:19:05;17.15;;;7.88;;
76540;SDS011;65385;55.772;37.658;2022-11-20T13:20:16;16.42;;;7.28;;
76540;SDS011;65385;55.772;37.658;2022-11-20T13:21:19;15.77;;;7.75;;
76540;SDS011;65385;55.772;37.658;2022-11-20T13:22:28;15.13;;;7.40;;
76540;SDS011;65385;55.772;37.658;2022-11-20T13:23:42;15.18;;;6.65;;
76540;SDS011;65385;55.772;37.658;2022-11-20T13:24:49;14.65;;;6.70;;
76540;SDS011;65385;55.772;37.658;2022-11-20T13:26:01;15.73;;;8.10;;
76540;SDS011;65385;55.772;37.658;2022-11-20T13:29:17;16.27;;;7.63;;
76540;SDS011;65385;55.772;37.658;2022-11-20T13:30:19;14.60;;;6.80;;
76540;SDS011;65385;55.772;37.658;2022-11-20T13:31:41;13.80;;;6.95;;
76540;SDS011;65385;55.772;37.658;2022-11-20T13:32:54;13.30;;;5.72;;
76540;SDS011;65385;55.772;37.658;2022-11-20T13:33:55;11.43;;;5.55;;
76540;SDS011;65385;55.772;37.658;2022-11-20T13:34:59;14.23;;;6.68;;
76540;SDS011;65385;55.772;37.658;2022-11-20T13:36:03;16.13;;;7.35;;
76540;SDS011;65385;55.772;37.658;2022-11-20T13:37:03;20.08;;;8.13;;
76540;SDS011;65385;55.772;37.658;2022-11-20T13:38:08;16.23;;;8.00;;
76540;SDS011;65385;55.772;37.658;2022-11-20T13:39:10;16.48;;;7.43;;
76540;SDS011;65385;55.772;37.658;2022-11-20T13:41:22;18.48;;;7.75;;
76540;SDS011;65385;55.772;37.658;2022-11-20T13:42:31;23.02;;;9.15;;
76540;SDS011;65385;55.772;37.658;2022-11-20T13:43:51;23.35;;;9.23;;
76540;SDS011;65385;55.772;37.658;2022-11-20T13:44:55;13.70;;;6.53;;
76540;SDS011;65385;55.772;37.658;2022-11-20T13:46:04;18.88;;;7.18;;
76540;SDS011;65385;55.772;37.658;2022-11-20T13:47:20;19.48;;;8.25;;
76540;SDS011;65385;55.772;37.658;2022-11-20T13:48:26;12.95;;;5.53;;
76540;SDS011;65385;55.772;37.658;2022-11-20T13:49:32;20.33;;;7.03;;
76540;SDS011;65385;55.772;37.658;2022-11-20T13:51:46;17.30;;;7.85;;
76540;SDS011;65385;55.772;37.658;2022-11-20T13:53:17;18.80;;;7.20;;
76540;SDS011;65385;55.772;37.658;2022-11-20T13:55:37;18.50;;;8.07;;
76540;SDS011;65385;55.772;37.658;2022-11-20T13:56:48;15.45;;;7.18;;
76540;SDS011;65385;55.772;37.658;2022-11-20T13:59:51;17.20;;;7.88;;
76540;SDS011;65385;55.772;37.658;2022-11-20T14:01:16;16.73;;;7.20;;
76540;SDS011;65385;55.772;37.658;2022-11-20T14:02:20;17.55;;;7.10;;
76540;SDS011;65385;55.772;37.658;2022-11-20T14:03:23;15.43;;;6.53;;
76540;SDS011;65385;55.772;37.658;2022-11-20T14:04:27;12.15;;;6.70;;
76540;SDS011;65385;55.772;37.658;2022-11-20T14:05:31;12.32;;;6.18;;
76540;SDS011;65385;55.772;37.658;2022-11-20T14:06:42;16.27;;;6.93;;
76540;SDS011;65385;55.772;37.658;2022-11-20T14:07:44;19.80;;;7.35;;
76540;SDS011;65385;55.772;37.658;2022-11-20T14:08:46;15.68;;;7.35;;
76540;SDS011;65385;55.772;37.658;2022-11-20T14:09:52;16.70;;;7.55;;
76540;SDS011;65385;55.772;37.658;2022-11-20T14:11:12;16.15;;;6.95;;
76540;SDS011;65385;55.772;37.658;2022-11-20T14:12:15;14.90;;;7.63;;
76540;SDS011;65385;55.772;37.658;2022-11-20T14:13:18;17.20;;;9.20;;
76540;SDS011;65385;55.772;37.658;2022-11-20T14:14:20;18.67;;;9.18;;
76540;SDS011;65385;55.772;37.658;2022-11-20T14:15:32;16.42;;;8.20;;
76540;SDS011;65385;55.772;37.658;2022-11-20T14:16:35;25.50;;;9.77;;
76540;SDS011;65385;55.772;37.658;2022-11-20T14:17:36;23.63;;;11.27;;
76540;SDS011;65385;55.772;37.658;2022-11-20T14:18:36;36.17;;;14.30;;
76540;SDS011;65385;55.772;37.658;2022-11-20T14:19:37;40.90;;;18.30;;
76540;SDS011;65385;55.772;37.658;2022-11-20T14:20:41;41.42;;;17.58;;
76540;SDS011;65385;55.772;37.658;2022-11-20T14:21:44;37.92;;;17.85;;
76540;SDS011;65385;55.772;37.658;2022-11-20T14:22:48;33.45;;;15.98;;
76540;SDS011;65385;55.772;37.658;2022-11-20T14:23:54;51.03;;;20.95;;
76540;SDS011;65385;55.772;37.658;2022-11-20T14:25:17;28.50;;;13.13;;
76540;SDS011;65385;55.772;37.658;2022-11-20T14:26:18;22.20;;;9.50;;
76540;SDS011;65385;55.772;37.658;2022-11-20T14:27:22;47.67;;;21.20;;
76540;SDS011;65385;55.772;37.658;2022-11-20T14:28:29;39.38;;;16.83;;
76540;SDS011;65385;55.772;37.658;2022-11-20T14:29:34;47.97;;;21.42;;
76540;SDS011;65385;55.772;37.658;2022-11-20T14:30:43;69.82;;;26.63;;
76540;SDS011;65385;55.772;37.658;2022-11-20T14:31:47;52.15;;;23.85;;
76540;SDS011;65385;55.772;37.658;2022-11-20T14:32:50;45.22;;;17.88;;
76540;SDS011;65385;55.772;37.658;2022-11-20T14:33:53;39.15;;;17.95;;
76540;SDS011;65385;55.772;37.658;2022-11-20T14:34:54;61.17;;;29.63;;
76540;SDS011;65385;55.772;37.658;2022-11-20T14:35:59;114.70;;;56.75;;
76540;SDS011;65385;55.772;37.658;2022-11-20T14:37:01;108.55;;;51.25;;
76540;SDS011;65385;55.772;37.658;2022-11-20T14:38:04;99.30;;;51.53;;
76540;SDS011;65385;55.772;37.658;2022-11-20T14:39:22;85.55;;;40.10;;
76540;SDS011;65385;55.772;37.658;2022-11-20T14:40:43;31.20;;;14.60;;
76540;SDS011;65385;55.772;37.658;2022-11-20T14:41:49;46.75;;;20.08;;
76540;SDS011;65385;55.772;37.658;2022-11-20T14:42:51;29.88;;;15.85;;
76540;SDS011;65385;55.772;37.658;2022-11-20T14:43:58;28.73;;;15.02;;
76540;SDS011;65385;55.772;37.658;2022-11-20T14:45:00;26.70;;;14.23;;
76540;SDS011;65385;55.772;37.658;2022-11-20T14:46:05;18.55;;;7.60;;
76540;SDS011;65385;55.772;37.658;2022-11-20T14:47:09;11.05;;;5.53;;
76540;SDS011;65385;55.772;37.658;2022-11-20T14:48:13;25.45;;;10.38;;
76540;SDS011;65385;55.772;37.658;2022-11-20T14:49:15;21.10;;;8.82;;
76540;SDS011;65385;55.772;37.658;2022-11-20T14:50:18;19.65;;;8.63;;
76540;SDS011;65385;55.772;37.658;2022-11-20T14:51:23;19.35;;;9.02;;
76540;SDS011;65385;55.772;37.658;2022-11-20T14:52:38;24.35;;;12.00;;
76540;SDS011;65385;55.772;37.658;2022-11-20T14:53:38;24.33;;;9.88;;
76540;SDS011;65385;55.772;37.658;2022-11-20T14:55:53;26.10;;;11.27;;
76540;SDS011;65385;55.772;37.658;2022-11-20T14:56:56;22.85;;;10.02;;
76540;SDS011;65385;55.772;37.658;2022-11-20T14:58:00;25.65;;;10.73;;
76540;SDS011;65385;55.772;37.658;2022-11-20T14:59:04;27.48;;;10.85;;
76540;SDS011;65385;55.772;37.658;2022-11-20T15:01:19;19.67;;;8.57;;
76540;SDS011;65385;55.772;37.658;2022-11-20T15:02:26;21.83;;;9.98;;
76540;SDS011;65385;55.772;37.658;2022-11-20T15:03:30;25.98;;;11.13;;
76540;SDS011;65385;55.772;37.658;2022-11-20T15:04:56;17.10;;;8.77;;
76540;SDS011;65385;55.772;37.658;2022-11-20T15:05:59;21.30;;;10.00;;
76540;SDS011;65385;55.772;37.658;2022-11-20T15:07:00;22.90;;;10.90;;
76540;SDS011;65385;55.772;37.658;2022-11-20T15:08:07;23.50;;;10.32;;
76540;SDS011;65385;55.772;37.658;2022-11-20T15:09:13;24.63;;;9.75;;
76540;SDS011;65385;55.772;37.658;2022-11-20T15:11:28;21.92;;;8.60;;
76540;SDS011;65385;55.772;37.658;2022-11-20T15:12:30;17.17;;;7.65;;
76540;SDS011;65385;55.772;37.658;2022-11-20T15:13:33;18.42;;;8.35;;
76540;SDS011;65385;55.772;37.658;2022-11-20T15:14:36;19.13;;;8.43;;
76540;SDS011;65385;55.772;37.658;2022-11-20T15:15:47;16.77;;;7.43;;
76540;SDS011;65385;55.772;37.658;2022-11-20T15:16:49;21.00;;;9.82;;
76540;SDS011;65385;55.772;37.658;2022-11-20T15:17:50;20.80;;;9.68;;
76540;SDS011;65385;55.772;37.658;2022-11-20T15:18:51;21.30;;;8.88;;
76540;SDS011;65385;55.772;37.658;2022-11-20T15:19:52;19.77;;;9.27;;
76540;SDS011;65385;55.772;37.658;2022-11-20T15:20:54;16.75;;;7.03;;
76540;SDS011;65385;55.772;37.658;2022-11-20T15:21:56;30.67;;;11.32;;
76540;SDS011;65385;55.772;37.658;2022-11-20T15:22:57;25.83;;;11.50;;
76540;SDS011;65385;55.772;37.658;2022-11-20T15:23:57;32.75;;;13.18;;
76540;SDS011;65385;55.772;37.658;2022-11-20T15:24:59;30.60;;;14.27;;
76540;SDS011;65385;55.772;37.658;2022-11-20T15:25:59;30.00;;;12.35;;
76540;SDS011;65385;55.772;37.658;2022-11-20T15:27:00;23.52;;;10.35;;
76540;SDS011;65385;55.772;37.658;2022-11-20T15:28:00;25.63;;;11.38;;
76540;SDS011;65385;55.772;37.658;2022-11-20T15:29:01;21.27;;;9.40;;
76540;SDS011;65385;55.772;37.658;2022-11-20T15:30:01;24.88;;;10.65;;
76540;SDS011;65385;55.772;37.658;2022-11-20T15:31:02;27.92;;;11.77;;
76540;SDS011;65385;55.772;37.658;2022-11-20T15:32:04;24.80;;;10.85;;
76540;SDS011;65385;55.772;37.658;2022-11-20T15:33:04;23.42;;;10.10;;
76540;SDS011;65385;55.772;37.658;2022-11-20T15:34:09;22.63;;;10.70;;
76540;SDS011;65385;55.772;37.658;2022-11-20T15:35:12;21.90;;;10.98;;
76540;SDS011;65385;55.772;37.658;2022-11-20T15:36:13;20.75;;;9.25;;
76540;SDS011;65385;55.772;37.658;2022-11-20T15:37:14;17.90;;;9.13;;
76540;SDS011;65385;55.772;37.658;2022-11-20T15:38:14;26.60;;;11.07;;
76540;SDS011;65385;55.772;37.658;2022-11-20T15:39:15;25.90;;;10.90;;
76540;SDS011;65385;55.772;37.658;2022-11-20T15:40:15;23.63;;;10.25;;
76540;SDS011;65385;55.772;37.658;2022-11-20T15:41:16;21.75;;;9.23;;
76540;SDS011;65385;55.772;37.658;2022-11-20T15:42:16;23.60;;;10.45;;
76540;SDS011;65385;55.772;37.658;2022-11-20T15:43:17;21.05;;;9.93;;
76540;SDS011;65385;55.772;37.658;2022-11-20T15:44:17;25.17;;;10.10;;
76540;SDS011;65385;55.772;37.658;2022-11-20T15:45:18;27.73;;;11.88;;
76540;SDS011;65385;55.772;37.658;2022-11-20T15:46:22;26.13;;;12.02;;
76540;SDS011;65385;55.772;37.658;2022-11-20T15:47:30;24.15;;;10.55;;
76540;SDS011;65385;55.772;37.658;2022-11-20T15:49:38;23.48;;;9.70;;
76540;SDS011;65385;55.772;37.658;2022-11-20T15:50:43;24.42;;;11.50;;
76540;SDS011;65385;55.772;37.658;2022-11-20T15:51:52;20.48;;;9.07;;
76540;SDS011;65385;55.772;37.658;2022-11-20T15:52:54;23.77;;;10.23;;
76540;SDS011;65385;55.772;37.658;2022-11-20T15:53:54;20.98;;;9.88;;
76540;SDS011;65385;55.772;37.658;2022-11-20T15:54:56;23.55;;;10.85;;
76540;SDS011;65385;55.772;37.658;2022-11-20T15:55:56;21.65;;;9.07;;
76540;SDS011;65385;55.772;37.658;2022-11-20T15:56:57;20.90;;;10.10;;
76540;SDS011;65385;55.772;37.658;2022-11-20T15:57:59;24.33;;;9.93;;
76540;SDS011;65385;55.772;37.658;2022-11-20T15:58:59;26.55;;;12.07;;
76540;SDS011;65385;55.772;37.658;2022-11-20T16:00:00;31.67;;;11.00;;
76540;SDS011;65385;55.772;37.658;2022-11-20T16:01:01;16.15;;;7.38;;
76540;SDS011;65385;55.772;37.658;2022-11-20T16:02:01;21.98;;;8.25;;
76540;SDS011;65385;55.772;37.658;2022-11-20T16:03:02;22.65;;;10.25;;
76540;SDS011;65385;55.772;37.658;2022-11-20T16:04:04;23.05;;;9.30;;
76540;SDS011;65385;55.772;37.658;2022-11-20T16:05:09;22.15;;;9.02;;
76540;SDS011;65385;55.772;37.658;2022-11-20T16:06:11;24.80;;;11.45;;
76540;SDS011;65385;55.772;37.658;2022-11-20T16:07:12;21.50;;;10.30;;
76540;SDS011;65385;55.772;37.658;2022-11-20T16:08:13;22.88;;;10.93;;
76540;SDS011;65385;55.772;37.658;2022-11-20T16:09:14;24.48;;;11.63;;
76540;SDS011;65385;55.772;37.658;2022-11-20T16:10:14;24.50;;;9.30;;
76540;SDS011;65385;55.772;37.658;2022-11-20T16:11:16;22.05;;;9.85;;
76540;SDS011;65385;55.772;37.658;2022-11-20T16:12:17;20.02;;;8.93;;
76540;SDS011;65385;55.772;37.658;2022-11-20T16:13:37;19.88;;;9.30;;
76540;SDS011;65385;55.772;37.658;2022-11-20T16:14:56;18.08;;;8.40;;
76540;SDS011;65385;55.772;37.658;2022-11-20T16:16:25;17.00;;;5.80;;
76540;SDS011;65385;55.772;37.658;2022-11-20T16:17:30;18.15;;;8.88;;
76540;SDS011;65385;55.772;37.658;2022-11-20T16:18:42;21.27;;;8.82;;
76540;SDS011;65385;55.772;37.658;2022-11-20T16:19:43;19.15;;;7.95;;
76540;SDS011;65385;55.772;37.658;2022-11-20T16:20:44;14.45;;;7.43;;
76540;SDS011;65385;55.772;37.658;2022-11-20T16:21:46;24.60;;;9.38;;
76540;SDS011;65385;55.772;37.658;2022-11-20T16:22:46;22.08;;;10.18;;
76540;SDS011;65385;55.772;37.658;2022-11-20T16:23:47;22.77;;;10.68;;
76540;SDS011;65385;55.772;37.658;2022-11-20T16:24:47;22.23;;;10.07;;
76540;SDS011;65385;55.772;37.658;2022-11-20T16:25:48;19.55;;;9.02;;
76540;SDS011;65385;55.772;37.658;2022-11-20T16:26:49;17.63;;;8.45;;
76540;SDS011;65385;55.772;37.658;2022-11-20T16:27:50;21.73;;;10.38;;
76540;SDS011;65385;55.772;37.658;2022-11-20T16:28:50;22.95;;;10.90;;
76540;SDS011;65385;55.772;37.658;2022-11-20T16:29:51;18.05;;;8.73;;
76540;SDS011;65385;55.772;37.658;2022-11-20T16:30:51;25.98;;;9.32;;
76540;SDS011;65385;55.772;37.658;2022-11-20T16:31:52;25.58;;;10.10;;
76540;SDS011;65385;55.772;37.658;2022-11-20T16:32:52;20.10;;;8.35;;
76540;SDS011;65385;55.772;37.658;2022-11-20T16:33:54;19.00;;;9.57;;
76540;SDS011;65385;55.772;37.658;2022-11-20T16:34:56;22.50;;;9.32;;
76540;SDS011;65385;55.772;37.658;2022-11-20T16:35:56;19.00;;;9.32;;
76540;SDS011;65385;55.772;37.658;2022-11-20T16:36:57;19.33;;;8.73;;
76540;SDS011;65385;55.772;37.658;2022-11-20T16:37:57;21.55;;;10.05;;
76540;SDS011;65385;55.772;37.658;2022-11-20T16:38:59;15.23;;;7.20;;
76540;SDS011;65385;55.772;37.658;2022-11-20T16:40:01;20.33;;;7.60;;
76540;SDS011;65385;55.772;37.658;2022-11-20T16:41:01;16.73;;;6.28;;
76540;SDS011;65385;55.772;37.658;2022-11-20T16:42:03;18.73;;;7.25;;
76540;SDS011;65385;55.772;37.658;2022-11-20T16:43:08;20.15;;;7.57;;
76540;SDS011;65385;55.772;37.658;2022-11-20T16:44:10;19.90;;;8.23;;
76540;SDS011;65385;55.772;37.658;2022-11-20T16:45:11;22.65;;;9.25;;
76540;SDS011;65385;55.772;37.658;2022-11-20T16:46:12;16.08;;;7.82;;
76540;SDS011;65385;55.772;37.658;2022-11-20T16:47:14;19.40;;;8.55;;
76540;SDS011;65385;55.772;37.658;2022-11-20T16:48:15;13.70;;;6.85;;
76540;SDS011;65385;55.772;37.658;2022-11-20T16:49:16;21.25;;;8.75;;
76540;SDS011;65385;55.772;37.658;2022-11-20T16:50:17;21.50;;;8.93;;
76540;SDS011;65385;55.772;37.658;2022-11-20T16:51:17;18.83;;;7.70;;
76540;SDS011;65385;55.772;37.658;2022-11-20T16:52:18;18.95;;;8.85;;
76540;SDS011;65385;55.772;37.658;2022-11-20T16:53:19;20.52;;;9.05;;
76540;SDS011;65385;55.772;37.658;2022-11-20T16:54:21;21.35;;;9.38;;
76540;SDS011;65385;55.772;37.658;2022-11-20T16:55:21;18.85;;;8.02;;
76540;SDS011;65385;55.772;37.658;2022-11-20T16:56:23;20.90;;;9.65;;
76540;SDS011;65385;55.772;37.658;2022-11-20T16:57:27;21.45;;;9.55;;
76540;SDS011;65385;55.772;37.658;2022-11-20T16:58:28;16.88;;;7.65;;
76540;SDS011;65385;55.772;37.658;2022-11-20T16:59:29;28.85;;;7.45;;
76540;SDS011;65385;55.772;37.658;2022-11-20T17:00:29;17.80;;;7.40;;
76540;SDS011;65385;55.772;37.658;2022-11-20T17:01:30;16.60;;;7.15;;
76540;SDS011;65385;55.772;37.658;2022-11-20T17:02:31;13.50;;;6.70;;
76540;SDS011;65385;55.772;37.658;2022-11-20T17:03:32;14.93;;;7.10;;
76540;SDS011;65385;55.772;37.658;2022-11-20T17:04:32;14.50;;;6.95;;
76540;SDS011;65385;55.772;37.658;2022-11-20T17:05:33;13.13;;;6.30;;
76540;SDS011;65385;55.772;37.658;2022-11-20T17:06:39;17.63;;;8.57;;
76540;SDS011;65385;55.772;37.658;2022-11-20T17:07:43;17.23;;;7.28;;
76540;SDS011;65385;55.772;37.658;2022-11-20T17:08:44;16.17;;;7.78;;
76540;SDS011;65385;55.772;37.658;2022-11-20T17:09:45;14.98;;;6.80;;
76540;SDS011;65385;55.772;37.658;2022-11-20T17:10:45;19.85;;;8.13;;
76540;SDS011;65385;55.772;37.658;2022-11-20T17:11:47;22.20;;;8.32;;
76540;SDS011;65385;55.772;37.658;2022-11-20T17:12:47;18.50;;;8.70;;
76540;SDS011;65385;55.772;37.658;2022-11-20T17:13:48;16.77;;;8.10;;
76540;SDS011;65385;55.772;37.658;2022-11-20T17:14:49;22.02;;;8.77;;
76540;SDS011;65385;55.772;37.658;2022-11-20T17:15:49;21.55;;;8.45;;
76540;SDS011;65385;55.772;37.658;2022-11-20T17:16:50;19.13;;;8.27;;
76540;SDS011;65385;55.772;37.658;2022-11-20T17:17:50;21.02;;;8.82;;
76540;SDS011;65385;55.772;37.658;2022-11-20T17:18:53;18.77;;;8.88;;
76540;SDS011;65385;55.772;37.658;2022-11-20T17:19:54;18.25;;;7.85;;
76540;SDS011;65385;55.772;37.658;2022-11-20T17:20:55;19.92;;;8.70;;
76540;SDS011;65385;55.772;37.658;2022-11-20T17:21:55;22.02;;;8.90;;
76540;SDS011;65385;55.772;37.658;2022-11-20T17:22:56;18.17;;;7.55;;
76540;SDS011;65385;55.772;37.658;2022-11-20T17:23:59;18.48;;;7.95;;
76540;SDS011;65385;55.772;37.658;2022-11-20T17:25:02;17.75;;;8.68;;
76540;SDS011;65385;55.772;37.658;2022-11-20T17:26:10;13.90;;;6.70;;
76540;SDS011;65385;55.772;37.658;2022-11-20T17:27:18;14.13;;;6.45;;
76540;SDS011;65385;55.772;37.658;2022-11-20T17:28:18;15.15;;;6.30;;
76540;SDS011;65385;55.772;37.658;2022-11-20T17:29:19;12.55;;;5.40;;
76540;SDS011;65385;55.772;37.658;2022-11-20T17:30:23;18.67;;;6.93;;
76540;SDS011;65385;55.772;37.658;2022-11-20T17:31:24;18.13;;;8.55;;
76540;SDS011;65385;55.772;37.658;2022-11-20T17:32:25;14.23;;;5.75;;
76540;SDS011;65385;55.772;37.658;2022-11-20T17:33:26;20.73;;;8.02;;
76540;SDS011;65385;55.772;37.658;2022-11-20T17:34:27;16.92;;;6.93;;
76540;SDS011;65385;55.772;37.658;2022-11-20T17:35:27;15.55;;;6.88;;
76540;SDS011;65385;55.772;37.658;2022-11-20T17:36:28;15.02;;;7.05;;
76540;SDS011;65385;55.772;37.658;2022-11-20T17:37:29;18.88;;;8.40;;
76540;SDS011;65385;55.772;37.658;2022-11-20T17:38:29;15.35;;;7.65;;
76540;SDS011;65385;55.772;37.658;2022-11-20T17:39:30;18.52;;;7.65;;
76540;SDS011;65385;55.772;37.658;2022-11-20T17:40:30;17.92;;;7.03;;
76540;SDS011;65385;55.772;37.658;2022-11-20T17:41:31;21.27;;;7.85;;
76540;SDS011;65385;55.772;37.658;2022-11-20T17:42:33;15.48;;;7.50;;
76540;SDS011;65385;55.772;37.658;2022-11-20T17:43:36;17.08;;;8.07;;
76540;SDS011;65385;55.772;37.658;2022-11-20T17:44:37;14.73;;;7.53;;
76540;SDS011;65385;55.772;37.658;2022-11-20T17:45:37;18.77;;;8.43;;
76540;SDS011;65385;55.772;37.658;2022-11-20T17:46:38;19.23;;;8.35;;
76540;SDS011;65385;55.772;37.658;2022-11-20T17:47:39;18.15;;;8.27;;
76540;SDS011;65385;55.772;37.658;2022-11-20T17:48:40;17.40;;;7.88;;
76540;SDS011;65385;55.772;37.658;2022-11-20T17:49:43;22.67;;;9.30;;
76540;SDS011;65385;55.772;37.658;2022-11-20T17:50:44;17.80;;;8.40;;
76540;SDS011;65385;55.772;37.658;2022-11-20T17:51:44;20.63;;;8.48;;
76540;SDS011;65385;55.772;37.658;2022-11-20T17:52:45;20.83;;;9.18;;
76540;SDS011;65385;55.772;37.658;2022-11-20T17:53:46;15.20;;;7.18;;
76540;SDS011;65385;55.772;37.658;2022-11-20T17:54:48;17.40;;;8.13;;
76540;SDS011;65385;55.772;37.658;2022-11-20T17:55:55;19.05;;;8.75;;
76540;SDS011;65385;55.772;37.658;2022-11-20T17:57:15;17.38;;;8.48;;
76540;SDS011;65385;55.772;37.658;2022-11-20T17:58:34;17.60;;;7.28;;
76540;SDS011;65385;55.772;37.658;2022-11-20T17:59:36;26.75;;;9.07;;
76540;SDS011;65385;55.772;37.658;2022-11-20T18:00:37;22.00;;;8.88;;
76540;SDS011;65385;55.772;37.658;2022-11-20T18:01:38;19.95;;;8.10;;
